sensor_id;sensor_type;location;lat;lon;timestamp;P1;durP1;ratioP1;P2;durP2;ratioP2
65613;SDS011;52283;49.292;10.572;2024-01-10T00:01:00;20.15;;;6.45;;
65613;SDS011;52283;49.292;10.572;2024-01-10T00:03:26;19.38;;;7.18;;
65613;SDS011;52283;49.292;10.572;2024-01-10T00:05:53;14.07;;;6.35;;
65613;SDS011;52283;49.292;10.572;2024-01-10T00:08:20;13.98;;;6.20;;
65613;SDS011;52283;49.292;10.572;2024-01-10T00:10:47;14.10;;;7.28;;
65613;SDS011;52283;49.292;10.572;2024-01-10T00:13:13;14.98;;;6.45;;
65613;SDS011;52283;49.292;10.572;2024-01-10T00:15:41;17.13;;;8.68;;
65613;SDS011;52283;49.292;10.572;2024-01-10T00:18:07;22.58;;;7.25;;
65613;SDS011;52283;49.292;10.572;2024-01-10T00:20:34;16.08;;;7.55;;
65613;SDS011;52283;49.292;10.572;2024-01-10T00:23:00;20.42;;;8.02;;
65613;SDS011;52283;49.292;10.572;2024-01-10T00:25:27;15.30;;;6.60;;
65613;SDS011;52283;49.292;10.572;2024-01-10T00:27:53;23.48;;;7.45;;
65613;SDS011;52283;49.292;10.572;2024-01-10T00:30:20;15.85;;;6.38;;
65613;SDS011;52283;49.292;10.572;2024-01-10T00:32:47;15.70;;;6.72;;
65613;SDS011;52283;49.292;10.572;2024-01-10T00:35:14;19.30;;;7.40;;
65613;SDS011;52283;49.292;10.572;2024-01-10T00:37:40;16.42;;;7.50;;
65613;SDS011;52283;49.292;10.572;2024-01-10T00:40:07;23.45;;;6.93;;
65613;SDS011;52283;49.292;10.572;2024-01-10T00:42:34;19.77;;;6.60;;
65613;SDS011;52283;49.292;10.572;2024-01-10T00:45:00;16.27;;;6.82;;
65613;SDS011;52283;49.292;10.572;2024-01-10T00:47:28;14.63;;;7.05;;
65613;SDS011;52283;49.292;10.572;2024-01-10T00:49:55;20.02;;;8.60;;
65613;SDS011;52283;49.292;10.572;2024-01-10T00:52:22;17.25;;;6.93;;
65613;SDS011;52283;49.292;10.572;2024-01-10T00:54:48;20.20;;;6.40;;
65613;SDS011;52283;49.292;10.572;2024-01-10T00:57:15;18.02;;;6.47;;
65613;SDS011;52283;49.292;10.572;2024-01-10T00:59:41;15.32;;;6.03;;
65613;SDS011;52283;49.292;10.572;2024-01-10T01:02:08;17.17;;;7.68;;
65613;SDS011;52283;49.292;10.572;2024-01-10T01:04:34;13.30;;;6.00;;
65613;SDS011;52283;49.292;10.572;2024-01-10T01:07:02;19.33;;;7.05;;
65613;SDS011;52283;49.292;10.572;2024-01-10T01:09:29;22.40;;;7.82;;
65613;SDS011;52283;49.292;10.572;2024-01-10T01:11:55;22.23;;;7.05;;
65613;SDS011;52283;49.292;10.572;2024-01-10T01:14:22;16.58;;;6.10;;
65613;SDS011;52283;49.292;10.572;2024-01-10T01:16:48;18.45;;;6.38;;
65613;SDS011;52283;49.292;10.572;2024-01-10T01:19:15;15.88;;;7.32;;
65613;SDS011;52283;49.292;10.572;2024-01-10T01:21:41;24.13;;;7.22;;
65613;SDS011;52283;49.292;10.572;2024-01-10T01:24:09;18.60;;;6.50;;
65613;SDS011;52283;49.292;10.572;2024-01-10T01:26:36;21.95;;;7.97;;
65613;SDS011;52283;49.292;10.572;2024-01-10T01:29:02;20.20;;;8.07;;
65613;SDS011;52283;49.292;10.572;2024-01-10T01:31:29;20.10;;;7.47;;
65613;SDS011;52283;49.292;10.572;2024-01-10T01:33:56;20.35;;;7.05;;
65613;SDS011;52283;49.292;10.572;2024-01-10T01:36:22;15.88;;;6.75;;
65613;SDS011;52283;49.292;10.572;2024-01-10T01:38:49;18.80;;;6.97;;
65613;SDS011;52283;49.292;10.572;2024-01-10T01:41:17;12.52;;;6.55;;
65613;SDS011;52283;49.292;10.572;2024-01-10T01:43:43;16.75;;;7.68;;
65613;SDS011;52283;49.292;10.572;2024-01-10T01:46:11;16.83;;;7.60;;
65613;SDS011;52283;49.292;10.572;2024-01-10T01:48:37;11.90;;;6.50;;
65613;SDS011;52283;49.292;10.572;2024-01-10T01:51:05;15.68;;;6.68;;
65613;SDS011;52283;49.292;10.572;2024-01-10T01:53:33;17.52;;;7.47;;
65613;SDS011;52283;49.292;10.572;2024-01-10T01:56:00;16.23;;;6.55;;
65613;SDS011;52283;49.292;10.572;2024-01-10T01:58:31;20.20;;;7.43;;
65613;SDS011;52283;49.292;10.572;2024-01-10T02:00:58;16.45;;;6.88;;
65613;SDS011;52283;49.292;10.572;2024-01-10T02:03:25;19.27;;;6.63;;
65613;SDS011;52283;49.292;10.572;2024-01-10T02:05:52;18.80;;;6.78;;
65613;SDS011;52283;49.292;10.572;2024-01-10T02:08:20;18.80;;;8.43;;
65613;SDS011;52283;49.292;10.572;2024-01-10T02:10:46;15.43;;;6.63;;
65613;SDS011;52283;49.292;10.572;2024-01-10T02:13:13;17.50;;;6.10;;
65613;SDS011;52283;49.292;10.572;2024-01-10T02:15:41;15.75;;;6.30;;
65613;SDS011;52283;49.292;10.572;2024-01-10T02:18:08;13.80;;;6.72;;
65613;SDS011;52283;49.292;10.572;2024-01-10T02:20:37;20.63;;;7.78;;
65613;SDS011;52283;49.292;10.572;2024-01-10T02:23:04;17.45;;;7.50;;
65613;SDS011;52283;49.292;10.572;2024-01-10T02:25:32;18.73;;;7.43;;
65613;SDS011;52283;49.292;10.572;2024-01-10T02:27:58;23.90;;;8.20;;
65613;SDS011;52283;49.292;10.572;2024-01-10T02:30:24;14.38;;;6.22;;
65613;SDS011;52283;49.292;10.572;2024-01-10T02:32:51;14.90;;;7.13;;
65613;SDS011;52283;49.292;10.572;2024-01-10T02:35:17;21.60;;;8.30;;
65613;SDS011;52283;49.292;10.572;2024-01-10T02:37:44;16.92;;;7.72;;
65613;SDS011;52283;49.292;10.572;2024-01-10T02:40:11;21.52;;;7.95;;
65613;SDS011;52283;49.292;10.572;2024-01-10T02:42:39;20.15;;;8.30;;
65613;SDS011;52283;49.292;10.572;2024-01-10T02:45:06;18.10;;;7.57;;
65613;SDS011;52283;49.292;10.572;2024-01-10T02:47:32;15.88;;;7.22;;
65613;SDS011;52283;49.292;10.572;2024-01-10T02:49:59;17.35;;;7.07;;
65613;SDS011;52283;49.292;10.572;2024-01-10T02:52:26;19.33;;;7.00;;
65613;SDS011;52283;49.292;10.572;2024-01-10T02:54:52;23.88;;;8.15;;
65613;SDS011;52283;49.292;10.572;2024-01-10T02:57:19;19.13;;;7.60;;
65613;SDS011;52283;49.292;10.572;2024-01-10T02:59:47;18.38;;;7.10;;
65613;SDS011;52283;49.292;10.572;2024-01-10T03:02:13;16.42;;;6.18;;
65613;SDS011;52283;49.292;10.572;2024-01-10T03:04:40;19.23;;;8.15;;
65613;SDS011;52283;49.292;10.572;2024-01-10T03:07:09;14.73;;;6.18;;
65613;SDS011;52283;49.292;10.572;2024-01-10T03:09:35;17.65;;;6.13;;
65613;SDS011;52283;49.292;10.572;2024-01-10T03:12:02;17.13;;;7.28;;
65613;SDS011;52283;49.292;10.572;2024-01-10T03:14:29;15.40;;;6.32;;
65613;SDS011;52283;49.292;10.572;2024-01-10T03:16:57;17.23;;;7.32;;
65613;SDS011;52283;49.292;10.572;2024-01-10T03:19:23;18.40;;;7.28;;
65613;SDS011;52283;49.292;10.572;2024-01-10T03:21:50;18.50;;;7.22;;
65613;SDS011;52283;49.292;10.572;2024-01-10T03:24:17;19.50;;;8.52;;
65613;SDS011;52283;49.292;10.572;2024-01-10T03:26:43;17.13;;;6.38;;
65613;SDS011;52283;49.292;10.572;2024-01-10T03:29:10;15.68;;;6.63;;
65613;SDS011;52283;49.292;10.572;2024-01-10T03:31:36;17.52;;;6.38;;
65613;SDS011;52283;49.292;10.572;2024-01-10T03:34:04;18.52;;;6.47;;
65613;SDS011;52283;49.292;10.572;2024-01-10T03:36:30;15.95;;;7.45;;
65613;SDS011;52283;49.292;10.572;2024-01-10T03:38:57;23.95;;;8.05;;
65613;SDS011;52283;49.292;10.572;2024-01-10T03:41:24;21.15;;;7.05;;
65613;SDS011;52283;49.292;10.572;2024-01-10T03:43:50;18.92;;;6.57;;
65613;SDS011;52283;49.292;10.572;2024-01-10T03:46:17;18.98;;;7.05;;
65613;SDS011;52283;49.292;10.572;2024-01-10T03:48:43;20.50;;;8.02;;
65613;SDS011;52283;49.292;10.572;2024-01-10T03:51:15;17.60;;;6.47;;
65613;SDS011;52283;49.292;10.572;2024-01-10T03:53:42;19.60;;;7.13;;
65613;SDS011;52283;49.292;10.572;2024-01-10T03:56:09;24.42;;;6.82;;
65613;SDS011;52283;49.292;10.572;2024-01-10T03:58:35;19.20;;;8.63;;
65613;SDS011;52283;49.292;10.572;2024-01-10T04:01:03;20.60;;;6.72;;
65613;SDS011;52283;49.292;10.572;2024-01-10T04:03:30;15.52;;;6.70;;
65613;SDS011;52283;49.292;10.572;2024-01-10T04:05:57;15.52;;;6.97;;
65613;SDS011;52283;49.292;10.572;2024-01-10T04:08:24;20.27;;;7.40;;
65613;SDS011;52283;49.292;10.572;2024-01-10T04:10:51;22.40;;;8.30;;
65613;SDS011;52283;49.292;10.572;2024-01-10T04:13:17;15.93;;;6.55;;
65613;SDS011;52283;49.292;10.572;2024-01-10T04:15:44;16.65;;;7.47;;
65613;SDS011;52283;49.292;10.572;2024-01-10T04:18:10;17.75;;;7.70;;
65613;SDS011;52283;49.292;10.572;2024-01-10T04:20:37;18.63;;;8.15;;
65613;SDS011;52283;49.292;10.572;2024-01-10T04:23:03;17.48;;;6.85;;
65613;SDS011;52283;49.292;10.572;2024-01-10T04:25:31;20.48;;;7.70;;
65613;SDS011;52283;49.292;10.572;2024-01-10T04:27:58;22.58;;;7.78;;
65613;SDS011;52283;49.292;10.572;2024-01-10T04:30:24;21.55;;;8.38;;
65613;SDS011;52283;49.292;10.572;2024-01-10T04:32:50;17.02;;;7.57;;
65613;SDS011;52283;49.292;10.572;2024-01-10T04:35:17;25.00;;;7.80;;
65613;SDS011;52283;49.292;10.572;2024-01-10T04:37:44;16.10;;;7.03;;
65613;SDS011;52283;49.292;10.572;2024-01-10T04:40:10;19.08;;;6.85;;
65613;SDS011;52283;49.292;10.572;2024-01-10T04:42:38;24.77;;;6.95;;
65613;SDS011;52283;49.292;10.572;2024-01-10T04:45:05;9.95;;;6.05;;
65613;SDS011;52283;49.292;10.572;2024-01-10T04:47:33;21.65;;;8.55;;
65613;SDS011;52283;49.292;10.572;2024-01-10T04:49:59;16.52;;;7.10;;
65613;SDS011;52283;49.292;10.572;2024-01-10T04:52:26;20.05;;;7.30;;
65613;SDS011;52283;49.292;10.572;2024-01-10T04:54:52;17.30;;;7.20;;
65613;SDS011;52283;49.292;10.572;2024-01-10T04:57:19;20.52;;;7.53;;
65613;SDS011;52283;49.292;10.572;2024-01-10T04:59:46;15.23;;;6.28;;
65613;SDS011;52283;49.292;10.572;2024-01-10T05:02:13;23.10;;;8.88;;
65613;SDS011;52283;49.292;10.572;2024-01-10T05:04:40;18.30;;;8.00;;
65613;SDS011;52283;49.292;10.572;2024-01-10T05:07:06;19.92;;;7.95;;
65613;SDS011;52283;49.292;10.572;2024-01-10T05:09:33;24.67;;;8.82;;
65613;SDS011;52283;49.292;10.572;2024-01-10T05:11:59;18.88;;;7.60;;
65613;SDS011;52283;49.292;10.572;2024-01-10T05:14:26;16.13;;;7.53;;
65613;SDS011;52283;49.292;10.572;2024-01-10T05:16:54;26.02;;;8.52;;
65613;SDS011;52283;49.292;10.572;2024-01-10T05:19:20;21.58;;;7.95;;
65613;SDS011;52283;49.292;10.572;2024-01-10T05:21:47;18.83;;;8.48;;
65613;SDS011;52283;49.292;10.572;2024-01-10T05:24:13;19.35;;;7.38;;
65613;SDS011;52283;49.292;10.572;2024-01-10T05:26:40;17.90;;;6.22;;
65613;SDS011;52283;49.292;10.572;2024-01-10T05:29:07;22.15;;;7.93;;
65613;SDS011;52283;49.292;10.572;2024-01-10T05:31:33;17.80;;;7.30;;
65613;SDS011;52283;49.292;10.572;2024-01-10T05:34:01;26.38;;;7.35;;
65613;SDS011;52283;49.292;10.572;2024-01-10T05:36:30;19.05;;;7.93;;
65613;SDS011;52283;49.292;10.572;2024-01-10T05:38:56;23.80;;;8.35;;
65613;SDS011;52283;49.292;10.572;2024-01-10T05:41:23;28.30;;;8.85;;
65613;SDS011;52283;49.292;10.572;2024-01-10T05:43:50;19.85;;;7.32;;
65613;SDS011;52283;49.292;10.572;2024-01-10T05:46:16;19.15;;;7.60;;
65613;SDS011;52283;49.292;10.572;2024-01-10T05:48:44;25.17;;;8.50;;
65613;SDS011;52283;49.292;10.572;2024-01-10T05:51:13;19.52;;;6.75;;
65613;SDS011;52283;49.292;10.572;2024-01-10T05:53:39;20.00;;;8.13;;
65613;SDS011;52283;49.292;10.572;2024-01-10T05:56:06;20.60;;;7.90;;
65613;SDS011;52283;49.292;10.572;2024-01-10T05:58:33;20.70;;;7.57;;
65613;SDS011;52283;49.292;10.572;2024-01-10T06:01:00;20.52;;;8.13;;
65613;SDS011;52283;49.292;10.572;2024-01-10T06:03:27;22.10;;;8.98;;
65613;SDS011;52283;49.292;10.572;2024-01-10T06:05:53;22.23;;;8.00;;
65613;SDS011;52283;49.292;10.572;2024-01-10T06:08:21;30.80;;;13.02;;
65613;SDS011;52283;49.292;10.572;2024-01-10T06:10:50;32.92;;;11.02;;
65613;SDS011;52283;49.292;10.572;2024-01-10T06:13:17;28.55;;;9.82;;
65613;SDS011;52283;49.292;10.572;2024-01-10T06:15:43;29.25;;;11.23;;
65613;SDS011;52283;49.292;10.572;2024-01-10T06:18:10;23.25;;;9.35;;
65613;SDS011;52283;49.292;10.572;2024-01-10T06:20:36;24.08;;;9.10;;
65613;SDS011;52283;49.292;10.572;2024-01-10T06:23:04;23.90;;;8.48;;
65613;SDS011;52283;49.292;10.572;2024-01-10T06:25:32;25.98;;;9.88;;
65613;SDS011;52283;49.292;10.572;2024-01-10T06:27:58;22.70;;;8.55;;
65613;SDS011;52283;49.292;10.572;2024-01-10T06:30:25;23.08;;;9.57;;
65613;SDS011;52283;49.292;10.572;2024-01-10T06:32:51;19.52;;;8.63;;
65613;SDS011;52283;49.292;10.572;2024-01-10T06:35:17;18.88;;;8.85;;
65613;SDS011;52283;49.292;10.572;2024-01-10T06:37:45;19.15;;;8.20;;
65613;SDS011;52283;49.292;10.572;2024-01-10T06:40:11;20.42;;;9.27;;
65613;SDS011;52283;49.292;10.572;2024-01-10T06:42:39;27.13;;;8.00;;
65613;SDS011;52283;49.292;10.572;2024-01-10T06:45:06;22.40;;;8.25;;
65613;SDS011;52283;49.292;10.572;2024-01-10T06:47:33;20.60;;;8.55;;
65613;SDS011;52283;49.292;10.572;2024-01-10T06:50:00;21.20;;;8.27;;
65613;SDS011;52283;49.292;10.572;2024-01-10T06:52:27;22.58;;;9.00;;
65613;SDS011;52283;49.292;10.572;2024-01-10T06:54:53;21.75;;;9.30;;
65613;SDS011;52283;49.292;10.572;2024-01-10T06:57:20;22.33;;;7.95;;
65613;SDS011;52283;49.292;10.572;2024-01-10T06:59:48;27.67;;;9.32;;
65613;SDS011;52283;49.292;10.572;2024-01-10T07:02:14;17.45;;;7.60;;
65613;SDS011;52283;49.292;10.572;2024-01-10T07:04:42;17.00;;;7.68;;
65613;SDS011;52283;49.292;10.572;2024-01-10T07:07:08;27.55;;;9.02;;
65613;SDS011;52283;49.292;10.572;2024-01-10T07:09:36;20.33;;;8.70;;
65613;SDS011;52283;49.292;10.572;2024-01-10T07:12:04;25.33;;;8.80;;
65613;SDS011;52283;49.292;10.572;2024-01-10T07:14:31;21.00;;;8.20;;
65613;SDS011;52283;49.292;10.572;2024-01-10T07:16:59;23.55;;;9.77;;
65613;SDS011;52283;49.292;10.572;2024-01-10T07:19:25;25.98;;;8.93;;
65613;SDS011;52283;49.292;10.572;2024-01-10T07:21:52;23.02;;;7.95;;
65613;SDS011;52283;49.292;10.572;2024-01-10T07:24:19;23.10;;;7.88;;
65613;SDS011;52283;49.292;10.572;2024-01-10T07:26:45;22.50;;;8.73;;
65613;SDS011;52283;49.292;10.572;2024-01-10T07:29:12;23.98;;;8.38;;
65613;SDS011;52283;49.292;10.572;2024-01-10T07:31:38;29.27;;;9.52;;
65613;SDS011;52283;49.292;10.572;2024-01-10T07:34:06;24.90;;;8.57;;
65613;SDS011;52283;49.292;10.572;2024-01-10T07:36:33;20.48;;;8.43;;
65613;SDS011;52283;49.292;10.572;2024-01-10T07:39:07;31.63;;;10.65;;
65613;SDS011;52283;49.292;10.572;2024-01-10T07:41:33;19.15;;;8.13;;
65613;SDS011;52283;49.292;10.572;2024-01-10T07:44:00;31.55;;;10.40;;
65613;SDS011;52283;49.292;10.572;2024-01-10T07:46:28;20.75;;;8.82;;
65613;SDS011;52283;49.292;10.572;2024-01-10T07:48:54;26.98;;;10.43;;
65613;SDS011;52283;49.292;10.572;2024-01-10T07:51:22;22.08;;;10.27;;
65613;SDS011;52283;49.292;10.572;2024-01-10T07:53:49;22.13;;;9.07;;
65613;SDS011;52283;49.292;10.572;2024-01-10T07:56:15;28.48;;;9.95;;
65613;SDS011;52283;49.292;10.572;2024-01-10T07:58:41;22.63;;;9.65;;
65613;SDS011;52283;49.292;10.572;2024-01-10T08:01:08;19.40;;;8.50;;
65613;SDS011;52283;49.292;10.572;2024-01-10T08:03:36;26.27;;;10.70;;
65613;SDS011;52283;49.292;10.572;2024-01-10T08:06:02;23.40;;;10.20;;
65613;SDS011;52283;49.292;10.572;2024-01-10T08:08:30;20.98;;;9.63;;
65613;SDS011;52283;49.292;10.572;2024-01-10T08:10:57;18.42;;;8.70;;
65613;SDS011;52283;49.292;10.572;2024-01-10T08:13:23;18.73;;;9.02;;
65613;SDS011;52283;49.292;10.572;2024-01-10T08:15:50;25.63;;;9.98;;
65613;SDS011;52283;49.292;10.572;2024-01-10T08:18:17;19.15;;;8.65;;
65613;SDS011;52283;49.292;10.572;2024-01-10T08:20:44;23.52;;;9.13;;
65613;SDS011;52283;49.292;10.572;2024-01-10T08:23:10;23.75;;;9.10;;
65613;SDS011;52283;49.292;10.572;2024-01-10T08:25:38;27.05;;;9.57;;
65613;SDS011;52283;49.292;10.572;2024-01-10T08:28:05;28.55;;;9.88;;
65613;SDS011;52283;49.292;10.572;2024-01-10T08:30:32;20.70;;;8.90;;
65613;SDS011;52283;49.292;10.572;2024-01-10T08:32:58;28.17;;;10.18;;
65613;SDS011;52283;49.292;10.572;2024-01-10T08:35:25;32.15;;;9.65;;
65613;SDS011;52283;49.292;10.572;2024-01-10T08:37:52;23.98;;;9.63;;
65613;SDS011;52283;49.292;10.572;2024-01-10T08:40:18;22.60;;;10.50;;
65613;SDS011;52283;49.292;10.572;2024-01-10T08:42:47;19.50;;;9.23;;
65613;SDS011;52283;49.292;10.572;2024-01-10T08:45:14;29.48;;;9.95;;
65613;SDS011;52283;49.292;10.572;2024-01-10T08:47:40;26.73;;;10.48;;
65613;SDS011;52283;49.292;10.572;2024-01-10T08:50:07;30.63;;;11.25;;
65613;SDS011;52283;49.292;10.572;2024-01-10T08:52:34;23.10;;;9.82;;
65613;SDS011;52283;49.292;10.572;2024-01-10T08:55:02;20.65;;;9.20;;
65613;SDS011;52283;49.292;10.572;2024-01-10T08:57:29;22.38;;;9.40;;
65613;SDS011;52283;49.292;10.572;2024-01-10T08:59:57;27.83;;;8.50;;
65613;SDS011;52283;49.292;10.572;2024-01-10T09:02:25;20.15;;;8.18;;
65613;SDS011;52283;49.292;10.572;2024-01-10T09:04:52;20.23;;;9.02;;
65613;SDS011;52283;49.292;10.572;2024-01-10T09:07:19;22.83;;;8.98;;
65613;SDS011;52283;49.292;10.572;2024-01-10T09:09:46;24.92;;;9.90;;
65613;SDS011;52283;49.292;10.572;2024-01-10T09:12:12;23.98;;;9.93;;
65613;SDS011;52283;49.292;10.572;2024-01-10T09:14:39;19.35;;;8.60;;
65613;SDS011;52283;49.292;10.572;2024-01-10T09:17:07;26.98;;;11.15;;
65613;SDS011;52283;49.292;10.572;2024-01-10T09:19:33;24.92;;;11.38;;
65613;SDS011;52283;49.292;10.572;2024-01-10T09:22:00;32.35;;;11.10;;
65613;SDS011;52283;49.292;10.572;2024-01-10T09:24:26;32.47;;;12.10;;
65613;SDS011;52283;49.292;10.572;2024-01-10T09:26:53;22.65;;;9.80;;
65613;SDS011;52283;49.292;10.572;2024-01-10T09:29:19;25.15;;;9.48;;
65613;SDS011;52283;49.292;10.572;2024-01-10T09:31:46;23.75;;;10.20;;
65613;SDS011;52283;49.292;10.572;2024-01-10T09:34:13;22.17;;;9.32;;
65613;SDS011;52283;49.292;10.572;2024-01-10T09:36:40;22.42;;;10.55;;
65613;SDS011;52283;49.292;10.572;2024-01-10T09:39:07;21.73;;;9.38;;
65613;SDS011;52283;49.292;10.572;2024-01-10T09:44:06;27.70;;;9.30;;
65613;SDS011;52283;49.292;10.572;2024-01-10T09:46:33;17.75;;;6.90;;
65613;SDS011;52283;49.292;10.572;2024-01-10T09:49:03;26.30;;;10.80;;
65613;SDS011;52283;49.292;10.572;2024-01-10T09:51:32;25.30;;;10.05;;
65613;SDS011;52283;49.292;10.572;2024-01-10T09:53:59;23.20;;;9.70;;
65613;SDS011;52283;49.292;10.572;2024-01-10T09:56:29;24.63;;;9.85;;
65613;SDS011;52283;49.292;10.572;2024-01-10T09:58:56;24.15;;;10.05;;
65613;SDS011;52283;49.292;10.572;2024-01-10T10:01:24;19.15;;;8.85;;
65613;SDS011;52283;49.292;10.572;2024-01-10T10:03:52;21.23;;;8.88;;
65613;SDS011;52283;49.292;10.572;2024-01-10T10:06:21;21.05;;;9.85;;
65613;SDS011;52283;49.292;10.572;2024-01-10T10:08:49;21.40;;;10.02;;
65613;SDS011;52283;49.292;10.572;2024-01-10T10:11:15;23.38;;;9.32;;
65613;SDS011;52283;49.292;10.572;2024-01-10T10:13:42;22.15;;;10.10;;
65613;SDS011;52283;49.292;10.572;2024-01-10T10:16:08;24.65;;;9.48;;
65613;SDS011;52283;49.292;10.572;2024-01-10T10:18:37;18.25;;;8.23;;
65613;SDS011;52283;49.292;10.572;2024-01-10T10:21:08;26.83;;;10.75;;
65613;SDS011;52283;49.292;10.572;2024-01-10T10:26:13;22.85;;;10.02;;
65613;SDS011;52283;49.292;10.572;2024-01-10T10:28:44;24.08;;;9.05;;
65613;SDS011;52283;49.292;10.572;2024-01-10T10:31:11;22.33;;;9.80;;
65613;SDS011;52283;49.292;10.572;2024-01-10T10:33:38;27.63;;;10.20;;
65613;SDS011;52283;49.292;10.572;2024-01-10T10:36:05;19.10;;;5.80;;
65613;SDS011;52283;49.292;10.572;2024-01-10T10:38:32;24.27;;;9.27;;
65613;SDS011;52283;49.292;10.572;2024-01-10T10:40:59;23.00;;;10.18;;
65613;SDS011;52283;49.292;10.572;2024-01-10T10:43:27;25.95;;;10.60;;
65613;SDS011;52283;49.292;10.572;2024-01-10T10:45:59;25.52;;;9.60;;
65613;SDS011;52283;49.292;10.572;2024-01-10T10:48:27;22.30;;;8.82;;
65613;SDS011;52283;49.292;10.572;2024-01-10T10:51:04;18.20;;;7.80;;
65613;SDS011;52283;49.292;10.572;2024-01-10T10:53:34;21.10;;;9.60;;
65613;SDS011;52283;49.292;10.572;2024-01-10T10:56:02;23.00;;;9.38;;
65613;SDS011;52283;49.292;10.572;2024-01-10T10:58:33;22.67;;;10.90;;
65613;SDS011;52283;49.292;10.572;2024-01-10T11:01:00;23.63;;;8.50;;
65613;SDS011;52283;49.292;10.572;2024-01-10T11:03:30;27.10;;;10.00;;
65613;SDS011;52283;49.292;10.572;2024-01-10T11:05:57;25.48;;;10.30;;
65613;SDS011;52283;49.292;10.572;2024-01-10T11:08:25;24.83;;;11.15;;
65613;SDS011;52283;49.292;10.572;2024-01-10T11:10:54;24.17;;;10.63;;
65613;SDS011;52283;49.292;10.572;2024-01-10T11:13:25;24.38;;;9.85;;
65613;SDS011;52283;49.292;10.572;2024-01-10T11:16:10;23.95;;;11.05;;
65613;SDS011;52283;49.292;10.572;2024-01-10T11:18:54;23.80;;;10.13;;
65613;SDS011;52283;49.292;10.572;2024-01-10T11:21:36;23.80;;;10.63;;
65613;SDS011;52283;49.292;10.572;2024-01-10T11:24:10;29.95;;;10.57;;
65613;SDS011;52283;49.292;10.572;2024-01-10T11:26:37;14.10;;;6.53;;
65613;SDS011;52283;49.292;10.572;2024-01-10T11:29:04;24.48;;;11.15;;
65613;SDS011;52283;49.292;10.572;2024-01-10T11:31:32;33.33;;;12.05;;
65613;SDS011;52283;49.292;10.572;2024-01-10T11:34:00;32.90;;;12.20;;
65613;SDS011;52283;49.292;10.572;2024-01-10T11:36:27;34.17;;;12.20;;
65613;SDS011;52283;49.292;10.572;2024-01-10T11:38:55;27.13;;;12.05;;
65613;SDS011;52283;49.292;10.572;2024-01-10T11:41:25;21.42;;;10.98;;
65613;SDS011;52283;49.292;10.572;2024-01-10T11:46:53;27.23;;;11.80;;
65613;SDS011;52283;49.292;10.572;2024-01-10T11:49:21;31.95;;;13.38;;
65613;SDS011;52283;49.292;10.572;2024-01-10T11:51:49;31.55;;;13.52;;
65613;SDS011;52283;49.292;10.572;2024-01-10T11:57:01;29.05;;;11.35;;
65613;SDS011;52283;49.292;10.572;2024-01-10T11:59:28;23.95;;;10.68;;
65613;SDS011;52283;49.292;10.572;2024-01-10T12:01:57;20.13;;;10.32;;
65613;SDS011;52283;49.292;10.572;2024-01-10T12:04:23;27.98;;;12.35;;
65613;SDS011;52283;49.292;10.572;2024-01-10T12:06:54;26.80;;;10.05;;
65613;SDS011;52283;49.292;10.572;2024-01-10T12:09:21;18.85;;;9.10;;
65613;SDS011;52283;49.292;10.572;2024-01-10T12:11:49;17.40;;;8.40;;
65613;SDS011;52283;49.292;10.572;2024-01-10T12:14:16;28.05;;;11.30;;
65613;SDS011;52283;49.292;10.572;2024-01-10T12:16:43;24.67;;;9.98;;
65613;SDS011;52283;49.292;10.572;2024-01-10T12:19:11;26.55;;;11.57;;
65613;SDS011;52283;49.292;10.572;2024-01-10T12:21:37;22.40;;;10.50;;
65613;SDS011;52283;49.292;10.572;2024-01-10T12:24:04;29.58;;;11.75;;
65613;SDS011;52283;49.292;10.572;2024-01-10T12:26:31;28.20;;;12.90;;
65613;SDS011;52283;49.292;10.572;2024-01-10T12:28:59;27.45;;;12.50;;
65613;SDS011;52283;49.292;10.572;2024-01-10T12:31:27;26.00;;;10.43;;
65613;SDS011;52283;49.292;10.572;2024-01-10T12:33:54;24.60;;;11.32;;
65613;SDS011;52283;49.292;10.572;2024-01-10T12:36:22;26.27;;;12.82;;
65613;SDS011;52283;49.292;10.572;2024-01-10T12:38:49;24.13;;;11.05;;
65613;SDS011;52283;49.292;10.572;2024-01-10T12:41:16;22.35;;;10.02;;
65613;SDS011;52283;49.292;10.572;2024-01-10T12:43:48;28.95;;;11.38;;
65613;SDS011;52283;49.292;10.572;2024-01-10T12:46:16;22.67;;;10.27;;
65613;SDS011;52283;49.292;10.572;2024-01-10T12:48:42;30.92;;;11.30;;
65613;SDS011;52283;49.292;10.572;2024-01-10T12:51:09;21.73;;;10.48;;
65613;SDS011;52283;49.292;10.572;2024-01-10T12:53:38;29.52;;;12.10;;
65613;SDS011;52283;49.292;10.572;2024-01-10T12:56:05;26.33;;;12.38;;
65613;SDS011;52283;49.292;10.572;2024-01-10T12:58:33;23.08;;;10.95;;
65613;SDS011;52283;49.292;10.572;2024-01-10T13:01:01;27.90;;;11.23;;
65613;SDS011;52283;49.292;10.572;2024-01-10T13:03:28;24.83;;;11.65;;
65613;SDS011;52283;49.292;10.572;2024-01-10T13:05:55;18.75;;;9.32;;
65613;SDS011;52283;49.292;10.572;2024-01-10T13:08:21;24.20;;;10.93;;
65613;SDS011;52283;49.292;10.572;2024-01-10T13:10:49;24.58;;;10.75;;
65613;SDS011;52283;49.292;10.572;2024-01-10T13:13:16;24.30;;;10.98;;
65613;SDS011;52283;49.292;10.572;2024-01-10T13:15:44;27.73;;;10.85;;
65613;SDS011;52283;49.292;10.572;2024-01-10T13:18:10;26.02;;;11.60;;
65613;SDS011;52283;49.292;10.572;2024-01-10T13:20:38;30.40;;;11.65;;
65613;SDS011;52283;49.292;10.572;2024-01-10T13:23:05;28.83;;;12.32;;
65613;SDS011;52283;49.292;10.572;2024-01-10T13:25:32;26.52;;;10.40;;
65613;SDS011;52283;49.292;10.572;2024-01-10T13:28:00;26.33;;;10.43;;
65613;SDS011;52283;49.292;10.572;2024-01-10T13:30:27;23.40;;;10.65;;
65613;SDS011;52283;49.292;10.572;2024-01-10T13:32:53;24.45;;;10.63;;
65613;SDS011;52283;49.292;10.572;2024-01-10T13:35:19;27.63;;;11.60;;
65613;SDS011;52283;49.292;10.572;2024-01-10T13:37:47;27.65;;;10.65;;
65613;SDS011;52283;49.292;10.572;2024-01-10T13:40:13;28.42;;;11.65;;
65613;SDS011;52283;49.292;10.572;2024-01-10T13:42:40;26.27;;;10.55;;
65613;SDS011;52283;49.292;10.572;2024-01-10T13:45:09;25.85;;;11.18;;
65613;SDS011;52283;49.292;10.572;2024-01-10T13:47:37;23.75;;;11.07;;
65613;SDS011;52283;49.292;10.572;2024-01-10T13:50:04;24.02;;;10.57;;
65613;SDS011;52283;49.292;10.572;2024-01-10T13:52:31;30.77;;;11.95;;
65613;SDS011;52283;49.292;10.572;2024-01-10T13:54:58;26.70;;;12.50;;
65613;SDS011;52283;49.292;10.572;2024-01-10T13:57:25;22.52;;;12.18;;
65613;SDS011;52283;49.292;10.572;2024-01-10T13:59:51;25.83;;;10.07;;
65613;SDS011;52283;49.292;10.572;2024-01-10T14:02:21;19.02;;;9.73;;
65613;SDS011;52283;49.292;10.572;2024-01-10T14:04:48;31.85;;;12.32;;
65613;SDS011;52283;49.292;10.572;2024-01-10T14:07:14;22.48;;;11.25;;
65613;SDS011;52283;49.292;10.572;2024-01-10T14:09:41;25.23;;;11.40;;
65613;SDS011;52283;49.292;10.572;2024-01-10T14:12:08;22.80;;;10.43;;
65613;SDS011;52283;49.292;10.572;2024-01-10T14:14:35;25.40;;;10.55;;
65613;SDS011;52283;49.292;10.572;2024-01-10T14:17:01;24.35;;;11.48;;
65613;SDS011;52283;49.292;10.572;2024-01-10T14:19:30;24.60;;;10.32;;
65613;SDS011;52283;49.292;10.572;2024-01-10T14:21:56;23.25;;;10.93;;
65613;SDS011;52283;49.292;10.572;2024-01-10T14:24:24;24.60;;;10.75;;
65613;SDS011;52283;49.292;10.572;2024-01-10T14:26:50;24.48;;;10.73;;
65613;SDS011;52283;49.292;10.572;2024-01-10T14:29:17;25.90;;;11.45;;